Time;durP1;ratioP1;P1;durP2;ratioP2;P2;SDS_P1;SDS_P2;PMS_P1;PMS_P2;Temp;Humidity;BMP_temperature;BMP_pressure;BME280_temperature;BME280_humidity;BME280_pressure;Samples;Min_cycle;Max_cycle;Signal;HPM_P1;HPM_P2
2022/11/17 00:00:36;;;;;;;15.47;10.67;;;;;;;5.14;100.00;94745.00;4980666;28;20455;-74
2022/11/17 00:03:02;;;;;;;14.90;10.83;;;;;;;5.04;100.00;94722.66;4994888;28;20883;-74
2022/11/17 00:05:29;;;;;;;13.90;11.47;;;;;;;4.99;100.00;94722.88;4958743;28;20441;-73
2022/11/17 00:07:56;;;;;;;18.20;12.97;;;;;;;5.07;100.00;94745.56;4974108;28;20544;-74
2022/11/17 00:10:22;;;;;;;17.97;12.13;;;;;;;5.03;100.00;94742.84;4973657;28;20524;-74
2022/11/17 00:15:35;;;;;;;17.27;12.07;;;;;;;5.24;100.00;94768.16;4994144;28;20430;-74
2022/11/17 00:23:48;;;;;;;15.17;11.53;;;;;;;5.04;100.00;94756.69;4986048;28;20445;-74
2022/11/17 00:26:18;;;;;;;17.00;12.50;;;;;;;5.20;100.00;94775.88;4979676;28;20431;-73
2022/11/17 00:28:44;;;;;;;19.57;11.90;;;;;;;5.01;100.00;94741.66;4999211;28;21274;-73
2022/11/17 00:34:04;;;;;;;17.67;14.13;;;;;;;5.01;100.00;94739.03;4974904;28;20428;-74
2022/11/17 00:36:42;;;;;;;22.30;13.30;;;;;;;5.05;100.00;94752.97;4982506;28;20475;-73
2022/11/17 00:39:09;;;;;;;17.47;13.47;;;;;;;5.16;100.00;94750.69;4978772;28;20449;-73
2022/11/17 00:41:36;;;;;;;16.57;12.47;;;;;;;5.10;100.00;94752.00;4972701;28;20429;-73
2022/11/17 00:44:03;;;;;;;17.73;12.63;;;;;;;5.22;100.00;94752.00;4972808;28;20520;-74
2022/11/17 00:46:30;;;;;;;18.53;13.63;;;;;;;5.09;100.00;94734.78;4972772;28;20436;-74
2022/11/17 00:48:57;;;;;;;16.90;11.67;;;;;;;4.99;100.00;94735.97;4975682;28;20488;-74
2022/11/17 00:51:24;;;;;;;18.80;14.20;;;;;;;4.82;100.00;94729.13;4976546;28;20456;-74
2022/11/17 00:53:51;;;;;;;17.03;12.23;;;;;;;4.97;100.00;94727.69;4988826;28;20440;-74
2022/11/17 00:56:18;;;;;;;16.87;12.77;;;;;;;4.91;100.00;94721.13;4956931;28;20881;-74
2022/11/17 00:58:44;;;;;;;25.20;13.03;;;;;;;5.08;100.00;94723.53;4972009;28;21158;-74
2022/11/17 01:01:12;;;;;;;14.93;11.77;;;;;;;5.23;100.00;94759.53;4966137;28;20531;-74
2022/11/17 01:03:38;;;;;;;16.63;12.20;;;;;;;4.85;100.00;94710.13;4992693;28;20991;-73
2022/11/17 01:06:10;;;;;;;18.77;13.13;;;;;;;5.13;100.00;94746.88;5007651;28;20979;-74
2022/11/17 01:08:37;;;;;;;13.67;11.17;;;;;;;5.12;100.00;94731.50;4973427;28;20481;-74
2022/11/17 01:11:30;;;;;;;17.00;12.90;;;;;;;5.18;100.00;94738.78;4967148;28;20567;-74
2022/11/17 01:13:59;;;;;;;15.83;10.97;;;;;;;4.96;100.00;94713.84;4980295;28;20437;-73
2022/11/17 01:16:28;;;;;;;18.10;12.97;;;;;;;5.05;100.00;94717.06;4975601;28;20995;-73
2022/11/17 01:18:58;;;;;;;18.00;13.20;;;;;;;5.01;100.00;94710.97;4992372;28;20471;-74
2022/11/17 01:21:27;;;;;;;17.57;13.40;;;;;;;5.04;100.00;94712.19;4990914;28;20442;-74
2022/11/17 01:23:56;;;;;;;21.40;13.87;;;;;;;4.64;100.00;94667.63;4992532;28;20428;-74
2022/11/17 01:26:25;;;;;;;22.50;14.97;;;;;;;4.88;100.00;94700.84;4974310;28;20436;-73
2022/11/17 01:28:52;;;;;;;19.70;13.27;;;;;;;4.90;100.00;94698.66;4971670;28;20456;-73
2022/11/17 01:31:24;;;;;;;20.20;13.80;;;;;;;4.91;100.00;94714.03;4971346;28;20919;-74
2022/11/17 01:33:51;;;;;;;16.37;12.87;;;;;;;4.91;100.00;94710.66;4972033;28;20869;-74
2022/11/17 01:36:25;;;;;;;17.57;13.27;;;;;;;4.96;100.00;94707.84;4967041;28;20481;-74
2022/11/17 01:38:52;;;;;;;17.80;12.60;;;;;;;4.75;100.00;94687.78;4964774;28;20456;-74
2022/11/17 01:41:22;;;;;;;17.77;13.13;;;;;;;4.83;100.00;94701.84;4971207;28;20443;-73
2022/11/17 01:43:54;;;;;;;22.27;14.60;;;;;;;4.71;100.00;94686.16;4971265;28;20434;-73
2022/11/17 01:46:33;;;;;;;14.70;11.77;;;;;;;4.88;100.00;94701.63;4971266;28;20451;-73
2022/11/17 01:49:20;;;;;;;18.90;12.80;;;;;;;5.03;100.00;94708.03;4972358;28;20985;-73
2022/11/17 01:51:55;;;;;;;19.20;13.83;;;;;;;4.86;100.00;94711.66;4970817;28;20996;-73
2022/11/17 01:54:25;;;;;;;19.10;14.47;;;;;;;5.00;100.00;94703.47;4972509;28;20447;-73
2022/11/17 01:56:57;;;;;;;17.90;12.73;;;;;;;4.70;100.00;94680.16;4972211;28;20835;-74
2022/11/17 01:59:39;;;;;;;22.73;13.77;;;;;;;4.70;100.00;94685.41;4971090;28;20445;-73
2022/11/17 02:02:06;;;;;;;22.13;13.90;;;;;;;4.82;100.00;94694.34;4987086;28;20457;-74
2022/11/17 02:04:41;;;;;;;19.03;14.40;;;;;;;4.64;100.00;94668.38;4955036;28;20738;-74
2022/11/17 02:07:23;;;;;;;21.60;13.37;;;;;;;4.65;100.00;94675.13;4976776;28;20451;-74
2022/11/17 02:09:51;;;;;;;26.13;16.60;;;;;;;4.63;100.00;94673.94;4990415;28;20531;-74
2022/11/17 02:12:20;;;;;;;28.50;15.97;;;;;;;4.59;100.00;94667.84;4981706;28;20489;-73
2022/11/17 02:14:48;;;;;;;25.13;16.13;;;;;;;4.63;100.00;94668.72;4972493;28;20841;-73
2022/11/17 02:17:16;;;;;;;27.03;17.10;;;;;;;4.60;100.00;94672.75;4970783;28;20461;-73
2022/11/17 02:19:47;;;;;;;22.43;15.60;;;;;;;4.50;100.00;94657.47;4970683;28;20437;-73
2022/11/17 02:22:48;;;;;;;26.77;17.53;;;;;;;4.60;100.00;94662.28;4970990;28;20508;-73
2022/11/17 02:25:59;;;;;;;29.43;16.10;;;;;;;4.65;100.00;94664.66;4960926;28;20956;-73
2022/11/17 02:28:31;;;;;;;18.53;12.50;;;;;;;4.59;100.00;94657.38;4961613;28;20469;-73
2022/11/17 02:31:22;;;;;;;17.07;12.10;;;;;;;4.44;100.00;94640.50;4972798;28;20464;-73
2022/11/17 02:34:04;;;;;;;18.90;13.10;;;;;;;4.57;100.00;94646.47;5006590;28;20456;-74
2022/11/17 02:36:42;;;;;;;14.80;12.13;;;;;;;4.47;100.00;94652.91;4999113;28;20821;-73
2022/11/17 02:39:21;;;;;;;16.60;12.20;;;;;;;4.66;100.00;94668.81;4973235;28;20500;-74
2022/11/17 02:42:03;;;;;;;15.87;12.47;;;;;;;4.57;100.00;94636.00;4990088;28;20448;-73
2022/11/17 02:44:35;;;;;;;12.60;10.07;;;;;;;4.71;100.00;94659.97;4984945;28;20523;-73
2022/11/17 02:47:08;;;;;;;17.23;12.60;;;;;;;4.66;100.00;94654.94;4970592;28;20494;-73
2022/11/17 02:49:40;;;;;;;16.47;12.10;;;;;;;4.59;100.00;94644.28;4970588;28;20448;-73
2022/11/17 02:52:08;;;;;;;20.77;13.00;;;;;;;4.71;100.00;94667.84;4986858;28;20523;-74
2022/11/17 02:54:34;;;;;;;19.57;12.93;;;;;;;4.71;100.00;94662.59;4970463;28;20798;-74
2022/11/17 02:57:01;;;;;;;33.53;15.00;;;;;;;4.62;100.00;94660.09;4986541;28;20441;-73
2022/11/17 02:59:47;;;;;;;27.30;13.70;;;;;;;4.73;100.00;94650.69;4981163;28;20432;-74
2022/11/17 03:02:19;;;;;;;22.00;14.87;;;;;;;4.63;100.00;94627.59;4970087;28;20440;-74
2022/11/17 03:05:15;;;;;;;18.47;12.83;;;;;;;4.51;100.00;94616.38;4973643;28;20429;-74
2022/11/17 03:08:12;;;;;;;22.10;15.10;;;;;;;4.49;100.00;94611.47;4974340;28;20497;-73
2022/11/17 03:11:01;;;;;;;14.57;11.30;;;;;;;4.58;100.00;94630.44;4974428;28;20820;-73
2022/11/17 03:13:31;;;;;;;21.57;13.90;;;;;;;4.61;100.00;94626.41;4975568;28;20443;-74
2022/11/17 03:16:23;;;;;;;18.67;13.03;;;;;;;4.52;100.00;94625.75;4958179;28;20458;-74
2022/11/17 03:18:58;;;;;;;19.80;13.17;;;;;;;4.61;100.00;94626.41;4974332;28;20965;-73
2022/11/17 03:21:30;;;;;;;16.40;12.87;;;;;;;4.42;100.00;94600.81;4974066;28;20475;-73
2022/11/17 03:24:00;;;;;;;14.53;11.60;;;;;;;4.56;100.00;94624.03;4974105;28;20428;-73
2022/11/17 03:26:32;;;;;;;15.60;11.53;;;;;;;4.58;100.00;94622.59;4987142;28;20444;-73
2022/11/17 03:29:02;;;;;;;16.00;11.47;;;;;;;4.45;100.00;94605.38;4957905;28;20457;-74
2022/11/17 03:31:31;;;;;;;14.50;10.30;;;;;;;4.31;100.00;94582.19;4980195;28;20479;-74
2022/11/17 03:34:01;;;;;;;15.83;12.30;;;;;;;4.43;100.00;94597.88;4994806;28;20432;-73
2022/11/17 03:36:33;;;;;;;20.07;13.33;;;;;;;4.46;100.00;94604.28;4985703;28;20437;-74
2022/11/17 03:39:29;;;;;;;18.67;13.53;;;;;;;4.41;100.00;94601.91;4975424;28;20459;-74
2022/11/17 03:42:01;;;;;;;21.27;15.10;;;;;;;4.60;100.00;94603.94;4979509;28;20429;-74
2022/11/17 03:44:31;;;;;;;25.50;16.30;;;;;;;4.41;100.00;94591.44;4992980;28;20442;-74
2022/11/17 03:47:01;;;;;;;24.60;15.03;;;;;;;4.40;100.00;94601.13;4992955;28;20944;-74
2022/11/17 03:49:50;;;;;;;24.67;16.60;;;;;;;4.17;100.00;94566.06;4994220;28;20523;-74
2022/11/17 03:52:17;;;;;;;29.63;16.80;;;;;;;4.39;100.00;94585.75;4988697;28;20557;-74
2022/11/17 03:54:44;;;;;;;33.80;18.73;;;;;;;4.31;100.00;94573.56;4974634;28;20443;-73
2022/11/17 03:57:38;;;;;;;24.07;16.63;;;;;;;4.26;100.00;94569.31;4977379;28;20996;-73
2022/11/17 04:00:11;;;;;;;26.50;17.40;;;;;;;4.29;100.00;94566.06;4979622;28;20476;-73
2022/11/17 04:02:47;;;;;;;26.70;16.80;;;;;;;4.19;100.00;94550.06;4973615;28;20479;-73
2022/11/17 04:05:16;;;;;;;25.13;15.27;;;;;;;4.13;100.00;94525.97;4973430;28;20449;-73
2022/11/17 04:07:45;;;;;;;21.47;14.50;;;;;;;4.25;100.00;94548.72;4974500;28;20460;-73
2022/11/17 04:10:18;;;;;;;24.03;16.30;;;;;;;4.30;100.00;94543.28;4973301;28;20927;-73
2022/11/17 04:18:16;;;;;;;23.03;14.70;;;;;;;4.19;100.00;94529.13;4974620;28;20540;-74
2022/11/17 04:20:43;;;;;;;21.73;14.17;;;;;;;4.06;100.00;94500.38;4983490;28;20944;-74
2022/11/17 04:23:14;;;;;;;29.43;16.67;;;;;;;4.26;100.00;94524.09;4992395;28;20432;-74
2022/11/17 04:28:37;;;;;;;31.03;17.07;;;;;;;4.20;100.00;94520.19;4993523;28;20536;-74
2022/11/17 04:31:17;;;;;;;28.37;17.47;;;;;;;4.20;100.00;94504.50;4973884;28;20928;-74
2022/11/17 04:33:48;;;;;;;29.00;17.50;;;;;;;4.15;100.00;94503.66;4972619;28;20431;-74
2022/11/17 04:36:18;;;;;;;28.00;17.47;;;;;;;4.18;100.00;94515.28;4990425;28;20556;-73
2022/11/17 04:38:50;;;;;;;30.50;16.93;;;;;;;4.21;100.00;94503.41;4991954;28;20752;-74
2022/11/17 04:44:05;;;;;;;25.60;16.90;;;;;;;4.11;100.00;94486.31;4978256;28;20515;-73
2022/11/17 04:46:34;;;;;;;26.77;17.30;;;;;;;4.22;100.00;94486.63;4972389;28;20441;-74
2022/11/17 04:49:01;;;;;;;29.20;17.73;;;;;;;4.20;100.00;94489.56;4988177;28;20972;-74
2022/11/17 04:51:29;;;;;;;25.70;16.23;;;;;;;3.82;100.00;94417.53;4982155;28;20543;-73
2022/11/17 04:53:56;;;;;;;22.07;14.33;;;;;;;4.09;100.00;94475.44;4973431;28;20433;-73
2022/11/17 04:56:24;;;;;;;26.73;16.37;;;;;;;4.21;100.00;94482.50;4988736;28;21024;-73
2022/11/17 04:58:51;;;;;;;23.67;14.40;;;;;;;4.19;100.00;94468.97;4985116;28;20839;-73
2022/11/17 05:01:19;;;;;;;24.63;14.00;;;;;;;4.19;100.00;94474.22;4973604;28;20447;-73
2022/11/17 05:04:10;;;;;;;28.10;15.23;;;;;;;4.18;100.00;94463.00;4976943;28;20571;-73
2022/11/17 05:06:37;;;;;;;24.13;14.40;;;;;;;4.20;100.00;94460.81;4988131;28;20458;-74
2022/11/17 05:09:07;;;;;;;29.73;16.20;;;;;;;4.17;100.00;94464.09;4967653;28;20469;-74
2022/11/17 05:14:21;;;;;;;22.93;14.30;;;;;;;4.38;100.00;94474.38;4981535;28;20429;-73
2022/11/17 05:17:04;;;;;;;30.60;16.00;;;;;;;4.40;100.00;94477.41;4984700;28;20515;-73
2022/11/17 05:19:44;;;;;;;25.77;15.70;;;;;;;4.41;100.00;94489.41;4988043;28;20437;-73
2022/11/17 05:24:59;;;;;;;20.90;14.47;;;;;;;4.13;100.00;94450.13;4977819;28;20445;-73
2022/11/17 05:27:26;;;;;;;20.53;14.83;;;;;;;4.28;100.00;94477.47;4983035;28;20535;-73
2022/11/17 05:29:53;;;;;;;25.77;15.03;;;;;;;4.19;100.00;94448.81;4974979;28;20440;-73
2022/11/17 05:32:20;;;;;;;18.77;15.13;;;;;;;4.23;100.00;94469.84;4990942;28;20483;-74
2022/11/17 05:34:47;;;;;;;23.13;15.43;;;;;;;4.30;100.00;94486.50;4991048;28;20444;-74
2022/11/17 05:37:14;;;;;;;21.27;15.30;;;;;;;4.42;100.00;94506.63;4978339;28;20480;-74
2022/11/17 05:39:40;;;;;;;20.13;14.77;;;;;;;4.23;100.00;94496.00;4973158;28;20440;-74
2022/11/17 05:42:07;;;;;;;25.07;17.67;;;;;;;4.18;100.00;94476.06;4968530;28;20444;-73
2022/11/17 05:44:33;;;;;;;22.90;15.63;;;;;;;4.23;100.00;94481.06;4986644;28;20433;-73
2022/11/17 05:47:00;;;;;;;26.57;15.83;;;;;;;4.16;100.00;94473.03;4991590;28;20444;-73
2022/11/17 05:49:27;;;;;;;25.50;15.20;;;;;;;4.33;100.00;94470.16;4974938;28;20867;-73
2022/11/17 05:51:54;;;;;;;25.10;16.90;;;;;;;4.12;100.00;94453.84;4984779;28;20599;-74
2022/11/17 05:54:21;;;;;;;26.77;16.10;;;;;;;4.14;100.00;94462.91;4985045;28;20433;-73
2022/11/17 05:57:03;;;;;;;24.90;14.30;;;;;;;4.13;100.00;94460.59;4971093;28;20985;-73
2022/11/17 05:59:39;;;;;;;24.03;15.83;;;;;;;4.37;100.00;94493.78;4980633;28;20468;-73
2022/11/17 06:02:15;;;;;;;24.80;14.43;;;;;;;4.36;100.00;94489.63;4984358;28;20445;-74
2022/11/17 06:04:42;;;;;;;24.50;16.30;;;;;;;4.41;100.00;94502.50;4967388;28;20470;-74
2022/11/17 06:07:09;;;;;;;23.30;15.67;;;;;;;4.49;100.00;94509.44;4984836;28;20523;-74
2022/11/17 06:09:40;;;;;;;20.73;13.50;;;;;;;4.55;100.00;94509.97;4971240;28;20441;-73
2022/11/17 06:12:07;;;;;;;22.33;15.13;;;;;;;4.49;100.00;94508.69;4971158;28;20572;-74
2022/11/17 06:14:36;;;;;;;22.27;15.73;;;;;;;4.35;100.00;94496.72;4972868;28;20428;-74
2022/11/17 06:17:08;;;;;;;21.00;14.20;;;;;;;4.44;100.00;94505.22;4955079;28;20441;-74
2022/11/17 06:19:42;;;;;;;19.17;12.93;;;;;;;4.55;100.00;94504.75;4985337;28;20431;-73
2022/11/17 06:22:09;;;;;;;22.40;13.63;;;;;;;4.26;100.00;94472.53;4970901;28;20424;-74
2022/11/17 06:24:40;;;;;;;21.67;14.33;;;;;;;4.12;100.00;94441.53;4986753;28;20798;-74
2022/11/17 06:27:09;;;;;;;20.70;14.37;;;;;;;4.25;100.00;94462.41;4980734;28;20441;-74
2022/11/17 06:29:36;;;;;;;23.57;13.10;;;;;;;4.40;100.00;94477.41;4987327;28;20536;-74
2022/11/17 06:32:10;;;;;;;21.50;14.23;;;;;;;4.28;100.00;94465.16;4970921;28;20701;-73
2022/11/17 06:34:36;;;;;;;24.40;13.70;;;;;;;4.33;100.00;94472.75;4984083;28;20449;-73
2022/11/17 06:37:03;;;;;;;20.50;14.03;;;;;;;4.33;100.00;94469.38;4981703;28;20532;-73
2022/11/17 06:39:30;;;;;;;21.07;12.80;;;;;;;4.11;100.00;94415.72;4975605;28;20441;-76
2022/11/17 06:41:56;;;;;;;19.33;12.70;;;;;;;4.45;100.00;94477.94;4971584;28;20527;-76
2022/11/17 06:44:23;;;;;;;21.03;13.87;;;;;;;4.32;100.00;94452.94;4962225;28;20968;-76
2022/11/17 06:46:49;;;;;;;21.80;12.73;;;;;;;4.47;100.00;94479.47;4975930;28;20467;-76
2022/11/17 06:49:16;;;;;;;21.43;13.57;;;;;;;4.59;100.00;94500.38;4992175;28;21202;-76
2022/11/17 06:51:43;;;;;;;20.67;14.43;;;;;;;4.48;100.00;94479.13;4987899;28;20436;-76
2022/11/17 06:54:13;;;;;;;18.50;12.70;;;;;;;4.58;100.00;94496.22;4979097;28;20425;-76
2022/11/17 06:56:41;;;;;;;22.03;13.50;;;;;;;4.63;100.00;94499.34;4975809;28;20487;-76
2022/11/17 06:59:08;;;;;;;16.47;12.10;;;;;;;4.29;100.00;94471.16;4977876;28;20905;-74
2022/11/17 07:01:35;;;;;;;19.43;13.70;;;;;;;4.63;100.00;94509.81;4996070;28;20436;-74
2022/11/17 07:04:02;;;;;;;18.30;12.60;;;;;;;4.36;100.00;94484.41;4993752;28;20455;-74
2022/11/17 07:06:29;;;;;;;18.70;13.63;;;;;;;4.36;100.00;94497.47;4980554;28;20528;-73
2022/11/17 07:08:56;;;;;;;22.47;14.80;;;;;;;4.61;100.00;94522.47;4974434;28;20460;-74
2022/11/17 07:11:23;;;;;;;16.50;12.60;;;;;;;4.36;100.00;94500.09;4975635;28;20491;-74
2022/11/17 07:13:49;;;;;;;24.13;14.90;;;;;;;4.48;100.00;94528.84;4974294;28;20498;-74
2022/11/17 07:16:19;;;;;;;19.23;13.87;;;;;;;4.43;100.00;94518.63;4975708;28;21015;-74
2022/11/17 07:18:51;;;;;;;15.93;11.60;;;;;;;4.61;100.00;94535.56;4984118;28;20807;-74
2022/11/17 07:21:18;;;;;;;18.20;12.50;;;;;;;4.30;100.00;94501.44;4979429;28;20492;-74
2022/11/17 07:23:44;;;;;;;14.53;11.00;;;;;;;4.47;100.00;94532.56;4975726;28;20421;-74
2022/11/17 07:26:13;;;;;;;13.60;11.27;;;;;;;4.50;100.00;94518.81;4978434;28;20495;-74
2022/11/17 07:28:40;;;;;;;13.70;11.00;;;;;;;4.53;100.00;94530.47;4993559;28;20518;-75
2022/11/17 07:31:08;;;;;;;14.63;9.87;;;;;;;4.36;100.00;94511.31;4973847;28;20519;-74
2022/11/17 07:33:35;;;;;;;11.10;9.97;;;;;;;4.67;100.00;94564.88;4974005;28;20803;-74
2022/11/17 07:36:08;;;;;;;11.53;9.60;;;;;;;4.65;100.00;94549.50;4973784;28;20483;-74
2022/11/17 07:38:36;;;;;;;10.80;8.80;;;;;;;4.64;100.00;94566.31;4973575;28;20468;-74
2022/11/17 07:41:04;;;;;;;13.73;9.90;;;;;;;4.58;100.00;94536.25;4989898;28;21000;-74
2022/11/17 07:43:32;;;;;;;14.27;10.63;;;;;;;4.60;100.00;94536.66;4974887;28;20500;-74
2022/11/17 07:46:07;;;;;;;12.57;9.40;;;;;;;4.57;100.00;94547.03;4988572;28;20532;-74
2022/11/17 07:48:35;;;;;;;13.43;9.50;;;;;;;4.78;100.00;94563.31;4974901;28;20457;-74
2022/11/17 07:51:03;;;;;;;12.83;10.67;;;;;;;4.44;100.00;94541.06;4974753;28;20444;-74
2022/11/17 07:53:32;;;;;;;13.00;11.50;;;;;;;4.60;100.00;94552.38;4983959;28;20473;-74
2022/11/17 07:56:07;;;;;;;15.10;11.37;;;;;;;4.65;100.00;94546.88;4979895;28;20450;-74
2022/11/17 07:58:34;;;;;;;13.87;12.40;;;;;;;4.57;100.00;94539.19;4990553;28;20461;-75
2022/11/17 08:01:06;;;;;;;15.63;11.20;;;;;;;4.45;100.00;94500.75;4977328;28;20495;-75
2022/11/17 08:03:33;;;;;;;15.00;10.23;;;;;;;4.25;100.00;94463.19;4987523;28;20435;-74
2022/11/17 08:06:05;;;;;;;16.03;10.73;;;;;;;4.42;100.00;94462.16;5015793;28;20482;-75
2022/11/17 08:08:32;;;;;;;14.23;10.40;;;;;;;4.51;100.00;94491.56;4992802;28;20492;-75
2022/11/17 08:11:04;;;;;;;21.70;8.87;;;;;;;4.62;100.00;94503.06;4994584;28;20447;-74
2022/11/17 08:13:32;;;;;;;10.13;7.87;;;;;;;4.51;100.00;94490.78;4992631;28;20479;-74
2022/11/17 08:15:58;;;;;;;11.53;9.37;;;;;;;4.39;100.00;94476.66;4994032;28;21009;-75
2022/11/17 08:18:25;;;;;;;10.27;8.60;;;;;;;4.55;100.00;94504.75;4993796;28;20452;-73
2022/11/17 08:21:02;;;;;;;13.80;8.60;;;;;;;4.40;100.00;94501.72;4983357;28;20433;-73
2022/11/17 08:23:29;;;;;;;13.00;9.50;;;;;;;4.46;100.00;94494.41;4972950;28;20433;-73
2022/11/17 08:25:56;;;;;;;10.23;8.63;;;;;;;4.44;100.00;94499.22;4973285;28;20437;-73
2022/11/17 08:28:22;;;;;;;11.83;9.70;;;;;;;4.44;100.00;94502.59;4956711;28;20464;-73
2022/11/17 08:30:49;;;;;;;14.93;10.43;;;;;;;4.29;100.00;94492.06;4987464;28;20463;-73
2022/11/17 08:33:16;;;;;;;13.90;10.20;;;;;;;4.49;100.00;94493.75;4986480;28;20503;-73
2022/11/17 08:35:43;;;;;;;14.17;9.37;;;;;;;4.67;100.00;94513.31;4972701;28;20445;-73
2022/11/17 08:38:14;;;;;;;10.90;8.30;;;;;;;4.56;100.00;94512.25;4972523;28;20465;-73
2022/11/17 08:40:41;;;;;;;9.90;7.97;;;;;;;4.67;100.00;94529.03;4988686;28;20475;-73
2022/11/17 08:43:08;;;;;;;12.17;8.70;;;;;;;4.64;100.00;94523.66;4972403;28;20532;-73
2022/11/17 08:45:34;;;;;;;8.60;7.77;;;;;;;4.63;100.00;94522.16;4972435;28;20437;-73
2022/11/17 08:48:02;;;;;;;9.67;8.13;;;;;;;4.67;100.00;94526.41;4972199;28;20507;-73
2022/11/17 08:50:29;;;;;;;11.43;8.77;;;;;;;4.49;100.00;94488.50;4990376;28;20472;-73
2022/11/17 08:52:56;;;;;;;10.27;7.70;;;;;;;4.31;100.00;94459.25;4984087;28;20536;-74
2022/11/17 08:55:24;;;;;;;12.87;8.43;;;;;;;4.38;100.00;94462.03;4988279;28;20800;-74
2022/11/17 08:57:52;;;;;;;10.60;8.30;;;;;;;4.59;100.00;94490.66;4973351;28;20499;-74
2022/11/17 09:00:20;;;;;;;10.03;7.80;;;;;;;4.40;100.00;94461.72;4972611;28;20517;-73
2022/11/17 09:02:47;;;;;;;11.37;7.67;;;;;;;4.64;100.00;94497.50;4974481;28;20525;-73
2022/11/17 09:05:14;;;;;;;10.87;8.80;;;;;;;4.29;100.00;94458.06;4973067;28;20504;-73
2022/11/17 09:07:41;;;;;;;8.90;7.57;;;;;;;4.54;100.00;94484.88;4973134;28;20453;-73
2022/11/17 09:10:09;;;;;;;9.83;8.03;;;;;;;4.72;100.00;94494.00;4972777;28;20495;-73
2022/11/17 09:12:36;;;;;;;9.33;7.53;;;;;;;4.43;100.00;94458.47;4971807;28;21098;-73
2022/11/17 09:15:04;;;;;;;9.20;7.57;;;;;;;4.70;100.00;94483.09;4956760;28;20955;-73
2022/11/17 09:17:31;;;;;;;12.37;7.93;;;;;;;4.73;100.00;94509.38;4982407;28;21046;-74
2022/11/17 09:19:58;;;;;;;8.90;7.50;;;;;;;4.65;100.00;94491.94;4993472;28;20820;-73
2022/11/17 09:22:25;;;;;;;7.77;7.03;;;;;;;4.42;100.00;94480.47;4965712;28;20544;-74
2022/11/17 09:24:52;;;;;;;6.43;5.83;;;;;;;4.59;100.00;94503.75;4978627;28;20495;-74
2022/11/17 09:27:18;;;;;;;12.07;7.03;;;;;;;4.60;100.00;94505.25;4981043;28;20460;-73
2022/11/17 09:29:45;;;;;;;9.50;6.80;;;;;;;4.59;100.00;94476.81;4977742;28;20503;-73
2022/11/17 09:32:12;;;;;;;12.30;6.77;;;;;;;4.73;100.00;94503.38;4980621;28;20469;-74
2022/11/17 09:34:38;;;;;;;8.57;7.10;;;;;;;4.50;100.00;94471.72;4973142;28;20556;-74
2022/11/17 09:37:05;;;;;;;10.73;8.23;;;;;;;4.51;100.00;94478.47;4967201;28;20440;-74
2022/11/17 09:39:32;;;;;;;7.60;6.80;;;;;;;4.58;100.00;94488.38;4990807;28;20556;-74
2022/11/17 09:41:58;;;;;;;7.13;5.90;;;;;;;4.67;100.00;94507.31;4974778;28;21060;-74
2022/11/17 09:44:39;;;;;;;7.40;6.17;;;;;;;4.58;100.00;94489.13;4990888;28;20451;-74
2022/11/17 09:47:19;;;;;;;8.23;6.00;;;;;;;4.71;100.00;94497.72;4978849;28;20435;-73
2022/11/17 09:50:11;;;;;;;8.60;7.20;;;;;;;4.72;100.00;94504.47;4972859;28;20452;-74
2022/11/17 09:52:56;;;;;;;8.40;5.83;;;;;;;4.88;100.00;94505.25;4991108;28;20428;-74
2022/11/17 09:55:36;;;;;;;5.33;4.83;;;;;;;5.00;100.00;94509.69;4975257;28;20843;-74
2022/11/17 09:58:48;;;;;;;5.33;4.87;;;;;;;5.10;100.00;94508.44;4971503;28;20453;-74
2022/11/17 10:01:18;;;;;;;8.13;5.30;;;;;;;5.09;100.00;94518.16;4962178;28;20448;-74
2022/11/17 10:03:47;;;;;;;6.60;5.03;;;;;;;5.16;100.00;94518.31;4987338;28;21012;-74
2022/11/17 10:06:25;;;;;;;5.93;5.23;;;;;;;5.10;100.00;94522.28;4972539;28;20479;-74
2022/11/17 10:08:59;;;;;;;5.27;4.77;;;;;;;5.24;100.00;94533.13;4955100;28;20476;-74
2022/11/17 10:11:31;;;;;;;6.27;4.60;;;;;;;5.10;100.00;94519.69;4972069;28;20531;-74
2022/11/17 10:14:07;;;;;;;4.57;4.07;;;;;;;5.26;100.00;94533.56;4954608;28;20480;-74
2022/11/17 10:16:35;;;;;;;4.20;3.80;;;;;;;5.19;100.00;94525.50;4988980;28;20467;-74
2022/11/17 10:19:27;;;;;;;5.23;4.73;;;;;;;4.95;100.00;94531.66;4990184;28;20470;-74
2022/11/17 10:22:15;;;;;;;5.43;4.93;;;;;;;4.63;100.00;94491.50;4990524;28;20801;-74
2022/11/17 10:24:45;;;;;;;9.20;8.17;;;;;;;4.85;100.00;94498.09;4986498;28;20437;-74
2022/11/17 10:27:23;;;;;;;12.73;10.40;;;;;;;4.71;100.00;94482.00;4970765;28;20464;-74
2022/11/17 10:30:06;;;;;;;10.40;9.17;;;;;;;5.02;100.00;94492.53;4967331;28;20441;-74
2022/11/17 10:32:45;;;;;;;7.20;5.90;;;;;;;5.00;100.00;94483.50;4966046;28;20445;-74
2022/11/17 10:35:19;;;;;;;7.67;6.30;;;;;;;5.02;100.00;94460.34;4972118;28;20599;-74
2022/11/17 10:38:00;;;;;;;6.70;5.77;;;;;;;5.12;100.00;94474.81;4970494;28;20464;-74
2022/11/17 10:40:44;;;;;;;7.17;5.90;;;;;;;5.07;100.00;94467.94;4954851;28;20444;-74
2022/11/17 10:43:11;;;;;;;7.27;6.57;;;;;;;5.13;100.00;94476.34;4973906;28;20527;-74
2022/11/17 10:45:44;;;;;;;7.17;6.47;;;;;;;5.17;100.00;94477.94;4974409;28;20544;-74
2022/11/17 10:48:34;;;;;;;7.97;6.63;;;;;;;5.26;100.00;94470.69;4981935;28;20448;-75
2022/11/17 10:51:19;;;;;;;7.80;6.50;;;;;;;5.24;100.00;94464.28;4983362;28;20481;-74
2022/11/17 10:54:15;;;;;;;7.33;6.03;;;;;;;5.21;100.00;94481.44;4983468;28;20802;-74
2022/11/17 10:56:54;;;;;;;7.40;6.60;;;;;;;5.29;100.00;94484.97;4970478;28;21118;-74
2022/11/17 10:59:29;;;;;;;6.87;6.27;;;;;;;5.28;100.00;94478.19;4987152;28;20837;-75
2022/11/17 11:01:56;;;;;;;8.07;5.93;;;;;;;5.29;100.00;94479.72;4987365;28;20454;-74
2022/11/17 11:04:35;;;;;;;6.33;5.73;;;;;;;5.45;100.00;94474.47;4970732;28;20437;-74
2022/11/17 11:07:12;;;;;;;6.87;6.20;;;;;;;5.37;100.00;94444.75;4983425;28;20531;-75
2022/11/17 11:09:52;;;;;;;6.80;6.10;;;;;;;5.63;100.00;94473.06;4972049;28;20429;-74
2022/11/17 11:12:33;;;;;;;8.03;6.10;;;;;;;5.68;100.00;94464.16;4975731;28;20531;-75
2022/11/17 11:15:02;;;;;;;7.03;6.30;;;;;;;5.59;100.00;94453.84;4970546;28;20595;-75
2022/11/17 11:17:28;;;;;;;7.90;6.60;;;;;;;5.78;100.00;94461.03;4954519;28;20808;-74
2022/11/17 11:19:57;;;;;;;7.90;7.10;;;;;;;5.73;100.00;94456.03;4986869;28;20469;-74
2022/11/17 11:22:27;;;;;;;9.60;7.80;;;;;;;5.73;100.00;94446.28;4981841;28;20558;-74
2022/11/17 11:25:16;;;;;;;11.97;8.60;;;;;;;5.76;100.00;94447.50;4979082;28;20869;-75
2022/11/17 11:27:48;;;;;;;8.13;7.13;;;;;;;5.82;100.00;94454.75;4978852;28;20559;-75
2022/11/17 11:30:17;;;;;;;10.10;8.37;;;;;;;5.94;100.00;94461.78;4958124;28;20515;-74
2022/11/17 11:33:03;;;;;;;10.10;8.50;;;;;;;5.98;100.00;94461.84;4988523;28;20527;-75
2022/11/17 11:35:35;;;;;;;12.10;8.17;;;;;;;6.00;100.00;94452.53;4985717;28;20435;-74
2022/11/17 11:38:26;;;;;;;12.70;9.90;;;;;;;6.00;100.00;94457.78;4974274;28;20473;-75
2022/11/17 11:41:08;;;;;;;12.73;9.73;;;;;;;5.88;100.00;94440.28;4978417;28;20455;-75
2022/11/17 11:43:51;;;;;;;8.40;7.47;;;;;;;6.13;100.00;94472.28;4994777;28;20451;-75
2022/11/17 11:46:40;;;;;;;9.63;8.27;;;;;;;6.09;100.00;94479.34;4985924;28;20518;-75
2022/11/17 11:49:20;;;;;;;7.40;6.67;;;;;;;5.93;100.00;94441.91;4980309;28;20456;-75
2022/11/17 11:51:49;;;;;;;8.73;7.93;;;;;;;5.93;100.00;94449.75;4982175;28;20445;-75
2022/11/17 11:54:23;;;;;;;9.70;7.70;;;;;;;5.78;100.00;94448.66;4973661;28;20492;-75
2022/11/17 11:56:50;;;;;;;9.23;7.20;;;;;;;5.92;100.00;94463.97;4958488;28;20753;-74
2022/11/17 11:59:29;;;;;;;7.80;7.00;;;;;;;6.11;100.00;94482.38;4985536;28;21282;-74
2022/11/17 12:01:59;;;;;;;10.53;8.83;;;;;;;6.16;100.00;94471.63;4989435;28;20960;-74
2022/11/17 12:04:42;;;;;;;9.07;8.13;;;;;;;6.16;100.00;94457.75;4992746;28;20436;-74
2022/11/17 12:07:34;;;;;;;9.40;8.47;;;;;;;6.27;100.00;94450.06;4992815;28;20451;-74
2022/11/17 12:10:14;;;;;;;7.73;6.97;;;;;;;6.27;100.00;94436.94;4989969;28;20491;-74
2022/11/17 12:12:44;;;;;;;9.10;8.07;;;;;;;6.30;100.00;94450.16;4973424;28;20440;-74